Ulqini, Mali i Zi

04:05 PM CET on dhjetor 21, 2014 (GMT +0100)
Podgorica | Change Station
CLOSE
Current Station
Airport
Location: Podgorica,
Elevation: 141 ft
Nearby Weather Stations

Elev 141 ft 42.36 °N, 19.25 °E | Updated 5 minutes ago

Clear
i kthjellet
52 °F
Feels Like 52 °F
N
16
Era e paqendrueshme Era from Veri

Sot
High -- | Low -- °F
--% Chance of Precip.
Yesterday
High -- | Low -- °F
Precip. -- ne
7:07 AM 4:14 PM
Waning Crescent, 0% visible
Presioni 30.30 ne
Visioni -9999.0 milje
Clouds
Pika E Veses 16 °F
Lageshtira E ajrit 24%
Rainfall 0.00 ne
Snow Depth Not available.
UV Not available.
Pollen Not available.
Air Quality Not available.
Flu Activity Not available.
METAR LYPG 211500Z 36014KT CAVOK 11/M09 Q1026 NOSIG

More Conditions Fewer Conditions

Presioni 30.30 ne
Visioni -9999.0 milje
Clouds
Pika E Veses 16 °F
Lageshtira E ajrit 24%
Rainfall 0.00 ne
Snow Depth Not available.
UV Not available.
Pollen Not available.
Air Quality Not available.
Flu Activity Not available.
METAR LYPG 211500Z 36014KT CAVOK 11/M09 Q1026 NOSIG

More Conditions Fewer Conditions

10-Day Weather Forecast

Almanac

Astronomy

Dec. 21, 2014 Rise Set
Actual Time
Civil Twilight
Nautical Twilight
Astronomical Twilight
Moon
Length Of Visible Light
Length of Day
Tomorrow will be .
, % of the Moon is Illuminated

Today's Extremes

Country Highs Country Lows

Community

WunderPhotos

Upload Photos

1,779,400 photos uploaded!

WunderBlogs® & News

Nearby

Air Quality

  Air Quality AQ Index Pollutant
Not available.

Snow Depth

Station Depth Elevation

Earthquake Activity

City Distance Mag. Time & Date
Minimum magnitude displayed is 2.5.

Coastal Water Temperatures

Vend Temperatura

Nearby Weather Stations